Time;durP1;ratioP1;P1;durP2;ratioP2;P2;SDS_P1;SDS_P2;PMS_P1;PMS_P2;Temp;Humidity;BMP_temperature;BMP_pressure;BME280_temperature;BME280_humidity;BME280_pressure;Samples;Min_cycle;Max_cycle;Signal;HPM_P1;HPM_P2
2023/11/04 00:01:14;;;;;;;;;;;10.20;84.60;;;;;;5092329;28;20327;-70
2023/11/04 00:03:40;;;;;;;;;;;10.20;84.40;;;;;;5092915;28;19951;-68
2023/11/04 00:06:06;;;;;;;;;;;10.20;84.50;;;;;;5091389;28;19962;-70
2023/11/04 00:08:32;;;;;;;;;;;10.30;84.40;;;;;;5092488;28;19919;-68
2023/11/04 00:10:57;;;;;;;;;;;10.30;84.30;;;;;;5091112;28;19926;-68
2023/11/04 00:13:23;;;;;;;;;;;10.20;84.20;;;;;;5091524;28;20002;-70
2023/11/04 00:15:49;;;;;;;;;;;10.20;84.20;;;;;;5091410;28;20188;-68
2023/11/04 00:18:15;;;;;;;;;;;10.20;85.10;;;;;;5092742;28;19912;-68
2023/11/04 00:20:41;;;;;;;;;;;10.30;84.30;;;;;;5090859;28;19928;-68
2023/11/04 00:23:07;;;;;;;;;;;10.30;84.00;;;;;;5092566;28;19923;-68
2023/11/04 00:25:33;;;;;;;;;;;10.30;84.80;;;;;;5091734;28;19943;-70
2023/11/04 00:27:59;;;;;;;;;;;10.30;83.80;;;;;;5092647;28;19916;-70
2023/11/04 00:30:24;;;;;;;;;;;10.30;83.60;;;;;;5090576;28;19926;-70
2023/11/04 00:32:50;;;;;;;;;;;10.30;83.50;;;;;;5092557;28;19916;-69
2023/11/04 00:35:16;;;;;;;;;;;10.30;83.40;;;;;;5092365;28;19915;-70
2023/11/04 00:37:43;;;;;;;;;;;10.30;83.70;;;;;;5091361;28;19998;-68
2023/11/04 00:40:10;;;;;;;;;;;10.30;83.90;;;;;;5094673;28;19996;-69
2023/11/04 00:42:37;;;;;;;;;;;10.20;83.10;;;;;;5095466;28;20545;-69
2023/11/04 00:45:04;;;;;;;;;;;10.20;83.80;;;;;;5096208;28;19955;-70
2023/11/04 00:47:29;;;;;;;;;;;10.30;83.80;;;;;;5095151;28;20386;-68
2023/11/04 00:49:55;;;;;;;;;;;10.20;83.80;;;;;;5096039;28;19920;-70
2023/11/04 00:52:21;;;;;;;;;;;10.20;84.00;;;;;;5095589;28;20382;-68
2023/11/04 00:54:47;;;;;;;;;;;10.20;84.10;;;;;;5094968;28;19916;-68
2023/11/04 00:57:13;;;;;;;;;;;10.10;84.20;;;;;;5096335;28;20010;-68
2023/11/04 00:59:39;;;;;;;;;;;10.10;84.20;;;;;;5095127;28;19912;-70
2023/11/04 01:02:05;;;;;;;;;;;10.10;84.30;;;;;;5095692;28;20026;-68
2023/11/04 01:04:31;;;;;;;;;;;10.00;84.30;;;;;;5096080;28;19919;-70
2023/11/04 01:06:57;;;;;;;;;;;10.00;84.30;;;;;;5096064;28;19923;-70
2023/11/04 01:09:22;;;;;;;;;;;10.00;84.30;;;;;;5077444;28;20459;-70
2023/11/04 01:11:49;;;;;;;;;;;10.00;84.40;;;;;;5095356;28;20381;-70
2023/11/04 01:14:15;;;;;;;;;;;10.00;84.50;;;;;;5094465;28;20444;-70
2023/11/04 01:16:40;;;;;;;;;;;10.00;84.40;;;;;;5095780;28;19920;-70
2023/11/04 01:19:06;;;;;;;;;;;10.00;84.40;;;;;;5094266;28;19916;-68
2023/11/04 01:21:32;;;;;;;;;;;10.00;85.30;;;;;;5095215;28;19921;-69
2023/11/04 01:23:58;;;;;;;;;;;10.00;84.50;;;;;;5094309;28;19957;-70
2023/11/04 01:26:24;;;;;;;;;;;9.90;84.50;;;;;;5095518;28;20027;-68
2023/11/04 01:28:50;;;;;;;;;;;9.90;84.50;;;;;;5094212;28;19912;-70
2023/11/04 01:31:15;;;;;;;;;;;9.90;84.60;;;;;;5093525;28;20011;-70
2023/11/04 01:33:41;;;;;;;;;;;9.90;84.50;;;;;;5094350;28;19951;-70
2023/11/04 01:36:07;;;;;;;;;;;9.90;85.30;;;;;;5094915;28;20428;-68
2023/11/04 01:38:33;;;;;;;;;;;9.90;83.90;;;;;;5095022;28;19919;-70
2023/11/04 01:41:00;;;;;;;;;;;9.90;84.40;;;;;;5093239;28;19916;-69
2023/11/04 01:43:27;;;;;;;;;;;9.90;84.30;;;;;;5095223;28;20296;-68
2023/11/04 01:46:14;;;;;;;;;;;9.90;84.10;;;;;;5094058;28;20066;-70
2023/11/04 01:48:42;;;;;;;;;;;9.90;84.00;;;;;;5094070;28;19916;-68
2023/11/04 01:51:08;;;;;;;;;;;9.90;84.00;;;;;;5092741;28;19920;-70
2023/11/04 01:53:36;;;;;;;;;;;9.90;84.10;;;;;;5076908;28;19923;-70
2023/11/04 01:56:04;;;;;;;;;;;9.90;84.20;;;;;;5093847;28;20370;-68
2023/11/04 01:58:32;;;;;;;;;;;9.90;84.20;;;;;;5094032;28;19978;-70
2023/11/04 02:00:59;;;;;;;;;;;9.80;83.90;;;;;;5093083;28;19924;-70
2023/11/04 02:03:27;;;;;;;;;;;9.80;83.90;;;;;;5093673;28;20280;-70
2023/11/04 02:05:53;;;;;;;;;;;9.80;84.00;;;;;;5093474;28;19926;-68
2023/11/04 02:08:19;;;;;;;;;;;9.80;84.20;;;;;;5076265;28;20426;-68
2023/11/04 02:10:46;;;;;;;;;;;9.80;84.20;;;;;;5075869;28;19960;-68
2023/11/04 02:13:12;;;;;;;;;;;9.80;84.10;;;;;;5094590;28;19912;-70
2023/11/04 02:15:38;;;;;;;;;;;9.70;84.30;;;;;;5093234;28;19911;-70
2023/11/04 02:18:04;;;;;;;;;;;9.70;83.70;;;;;;5093269;28;19912;-68
2023/11/04 02:20:33;;;;;;;;;;;9.80;84.40;;;;;;5093821;28;19935;-70
2023/11/04 02:22:59;;;;;;;;;;;9.70;84.20;;;;;;5093062;28;20003;-68
2023/11/04 02:25:41;;;;;;;;;;;9.70;83.80;;;;;;5076025;28;20109;-70
2023/11/04 02:28:07;;;;;;;;;;;9.70;83.90;;;;;;5094416;28;20465;-68
2023/11/04 02:30:32;;;;;;;;;;;9.70;83.90;;;;;;5093580;28;20396;-68
2023/11/04 02:32:58;;;;;;;;;;;9.70;84.30;;;;;;5093045;28;19995;-70
2023/11/04 02:35:25;;;;;;;;;;;9.60;84.40;;;;;;5092786;28;19923;-70
2023/11/04 02:37:52;;;;;;;;;;;9.60;84.40;;;;;;5092752;28;19916;-70
2023/11/04 02:40:18;;;;;;;;;;;9.60;83.70;;;;;;5092144;28;20002;-68
2023/11/04 02:42:44;;;;;;;;;;;9.60;84.30;;;;;;5093054;28;20459;-68
2023/11/04 02:45:11;;;;;;;;;;;9.60;84.20;;;;;;5093945;28;19916;-70
2023/11/04 02:47:36;;;;;;;;;;;9.60;84.20;;;;;;5094436;28;19916;-70
2023/11/04 02:50:03;;;;;;;;;;;9.50;84.20;;;;;;5091988;28;19916;-70
2023/11/04 02:52:28;;;;;;;;;;;9.50;83.80;;;;;;5092273;28;19923;-70
2023/11/04 02:54:54;;;;;;;;;;;9.50;84.50;;;;;;5092734;28;19916;-70
2023/11/04 02:57:20;;;;;;;;;;;9.50;83.90;;;;;;5094060;28;19966;-70
2023/11/04 02:59:46;;;;;;;;;;;9.40;84.60;;;;;;5092409;28;19920;-70
2023/11/04 03:02:14;;;;;;;;;;;9.40;84.70;;;;;;5092407;28;19927;-70
2023/11/04 03:04:40;;;;;;;;;;;9.40;84.80;;;;;;5092515;28;20002;-69
2023/11/04 03:07:06;;;;;;;;;;;9.40;84.90;;;;;;5093879;28;19927;-70
2023/11/04 03:09:32;;;;;;;;;;;9.30;84.80;;;;;;5092299;28;20307;-69
2023/11/04 03:11:59;;;;;;;;;;;9.30;84.40;;;;;;5091815;28;19966;-68
2023/11/04 03:14:26;;;;;;;;;;;9.30;84.50;;;;;;5092315;28;20011;-70
2023/11/04 03:16:53;;;;;;;;;;;9.30;85.00;;;;;;5092344;28;20037;-68
2023/11/04 03:19:19;;;;;;;;;;;9.30;85.00;;;;;;5092051;28;20007;-68
2023/11/04 03:21:45;;;;;;;;;;;9.30;85.00;;;;;;5091590;28;19955;-68
2023/11/04 03:24:11;;;;;;;;;;;9.30;84.80;;;;;;5093471;28;19994;-68
2023/11/04 03:26:37;;;;;;;;;;;9.30;84.80;;;;;;5092135;28;19923;-70
2023/11/04 03:29:03;;;;;;;;;;;9.30;84.30;;;;;;5093237;28;19954;-69
2023/11/04 03:31:30;;;;;;;;;;;9.30;85.00;;;;;;5092685;28;19928;-70
2023/11/04 03:33:57;;;;;;;;;;;9.30;85.10;;;;;;5092055;28;19919;-70
2023/11/04 03:36:23;;;;;;;;;;;9.20;84.30;;;;;;5091885;28;19920;-68
2023/11/04 03:38:49;;;;;;;;;;;9.20;85.00;;;;;;5074761;28;19961;-68
2023/11/04 03:41:15;;;;;;;;;;;9.20;84.80;;;;;;5091322;28;20326;-70
2023/11/04 03:43:41;;;;;;;;;;;9.30;84.70;;;;;;5093086;28;19961;-70
2023/11/04 03:46:07;;;;;;;;;;;9.30;84.40;;;;;;5091788;28;19920;-68
2023/11/04 03:48:33;;;;;;;;;;;9.40;84.20;;;;;;5093462;28;20277;-68
2023/11/04 03:50:59;;;;;;;;;;;9.30;84.20;;;;;;5092191;28;19924;-68
2023/11/04 03:53:25;;;;;;;;;;;9.40;83.40;;;;;;5091794;28;20372;-70
2023/11/04 03:55:51;;;;;;;;;;;9.40;83.80;;;;;;5092892;28;19942;-70
2023/11/04 03:58:17;;;;;;;;;;;9.40;83.00;;;;;;5091731;28;19924;-67
2023/11/04 04:00:43;;;;;;;;;;;9.50;83.50;;;;;;5092364;28;19920;-70
2023/11/04 04:03:09;;;;;;;;;;;9.50;83.40;;;;;;5092822;28;20331;-68
2023/11/04 04:05:35;;;;;;;;;;;9.60;83.20;;;;;;5092764;28;19912;-70
2023/11/04 04:08:02;;;;;;;;;;;9.50;83.30;;;;;;5091459;28;20369;-69
2023/11/04 04:10:27;;;;;;;;;;;9.50;83.40;;;;;;5092139;28;19922;-68
2023/11/04 04:12:53;;;;;;;;;;;9.50;83.60;;;;;;5093718;28;19916;-68
2023/11/04 04:15:19;;;;;;;;;;;9.50;83.60;;;;;;5095400;28;19919;-68
2023/11/04 04:17:45;;;;;;;;;;;9.50;83.00;;;;;;5095900;28;20273;-68
2023/11/04 04:20:12;;;;;;;;;;;9.50;83.50;;;;;;5096127;28;19922;-68
2023/11/04 04:22:38;;;;;;;;;;;9.50;83.30;;;;;;5097092;28;20287;-70
2023/11/04 04:25:05;;;;;;;;;;;9.50;83.40;;;;;;5078350;28;19916;-68
2023/11/04 04:27:31;;;;;;;;;;;9.50;83.10;;;;;;5096557;28;20474;-70
2023/11/04 04:29:57;;;;;;;;;;;9.40;82.80;;;;;;5096495;28;20412;-70
2023/11/04 04:32:23;;;;;;;;;;;9.30;82.60;;;;;;5094770;28;19930;-70
2023/11/04 04:34:49;;;;;;;;;;;9.40;83.10;;;;;;5095418;28;20007;-68
2023/11/04 04:37:15;;;;;;;;;;;9.30;83.30;;;;;;5096641;28;20519;-69
2023/11/04 04:39:41;;;;;;;;;;;9.30;83.40;;;;;;5078103;28;19912;-70
2023/11/04 04:42:07;;;;;;;;;;;9.30;83.40;;;;;;5094801;28;20028;-70
2023/11/04 04:44:33;;;;;;;;;;;9.30;83.40;;;;;;5096481;28;19937;-68
2023/11/04 04:47:00;;;;;;;;;;;9.40;83.30;;;;;;5095043;28;20438;-70
2023/11/04 04:49:26;;;;;;;;;;;9.40;83.00;;;;;;5094756;28;19959;-70
2023/11/04 04:51:52;;;;;;;;;;;9.40;83.10;;;;;;5094395;28;19920;-70
2023/11/04 04:54:18;;;;;;;;;;;9.50;83.10;;;;;;5096320;28;19924;-70
2023/11/04 04:56:43;;;;;;;;;;;9.50;83.00;;;;;;5094769;28;19920;-68
2023/11/04 04:59:09;;;;;;;;;;;9.60;82.90;;;;;;5095927;28;19912;-68
2023/11/04 05:01:35;;;;;;;;;;;9.50;82.80;;;;;;5077382;28;20361;-68
2023/11/04 05:04:01;;;;;;;;;;;9.50;82.70;;;;;;5096029;28;19918;-70
2023/11/04 05:06:28;;;;;;;;;;;9.50;82.90;;;;;;5095789;28;19928;-67
2023/11/04 05:08:55;;;;;;;;;;;9.60;83.10;;;;;;5095701;28;19912;-69
2023/11/04 05:11:21;;;;;;;;;;;9.50;83.00;;;;;;5095205;28;20390;-70
2023/11/04 05:13:47;;;;;;;;;;;9.50;82.80;;;;;;5094565;28;19916;-70
2023/11/04 05:16:13;;;;;;;;;;;9.60;82.70;;;;;;5094558;28;19962;-70
2023/11/04 05:18:39;;;;;;;;;;;9.50;82.60;;;;;;5095638;28;19912;-68
2023/11/04 05:21:05;;;;;;;;;;;9.60;82.60;;;;;;5095058;28;19921;-70
2023/11/04 05:23:31;;;;;;;;;;;9.60;82.00;;;;;;5077528;28;19912;-70
2023/11/04 05:28:41;;;;;;;;;;;9.60;82.00;;;;;;5095821;28;19962;-69
2023/11/04 05:31:11;;;;;;;;;;;9.60;82.30;;;;;;5093494;28;19924;-67
2023/11/04 05:33:37;;;;;;;;;;;9.60;82.10;;;;;;5094256;28;19934;-70
2023/11/04 05:36:03;;;;;;;;;;;9.60;82.00;;;;;;5093964;28;19920;-70
2023/11/04 05:38:31;;;;;;;;;;;9.60;81.60;;;;;;5095018;28;19919;-70
2023/11/04 05:40:57;;;;;;;;;;;9.60;82.20;;;;;;5093322;28;20285;-68
2023/11/04 05:43:25;;;;;;;;;;;9.70;82.30;;;;;;5094006;28;20010;-70
2023/11/04 05:45:51;;;;;;;;;;;9.70;82.20;;;;;;5094015;28;19920;-68
2023/11/04 05:48:21;;;;;;;;;;;9.70;81.50;;;;;;5095057;28;19920;-68
2023/11/04 05:50:47;;;;;;;;;;;9.70;82.00;;;;;;5094300;28;20426;-70
2023/11/04 05:53:14;;;;;;;;;;;9.70;82.00;;;;;;5076717;28;19920;-68
2023/11/04 05:55:40;;;;;;;;;;;9.80;81.50;;;;;;5094853;28;19916;-70
2023/11/04 05:58:06;;;;;;;;;;;9.70;81.00;;;;;;5093775;28;19920;-69
2023/11/04 06:00:32;;;;;;;;;;;9.70;81.50;;;;;;5092963;28;19939;-68
2023/11/04 06:02:58;;;;;;;;;;;9.60;81.50;;;;;;5093568;28;19942;-70
2023/11/04 06:05:24;;;;;;;;;;;9.60;81.70;;;;;;5093381;28;20437;-68
2023/11/04 06:07:51;;;;;;;;;;;9.70;81.50;;;;;;5093313;28;19951;-68
2023/11/04 06:10:16;;;;;;;;;;;9.60;80.60;;;;;;5092766;28;19916;-70
2023/11/04 06:12:43;;;;;;;;;;;9.50;80.70;;;;;;5093763;28;19919;-68
2023/11/04 06:15:09;;;;;;;;;;;9.50;81.20;;;;;;5093249;28;19998;-70
2023/11/04 06:17:35;;;;;;;;;;;9.40;80.60;;;;;;5093591;28;19919;-68
2023/11/04 06:20:01;;;;;;;;;;;9.40;81.10;;;;;;5093199;28;19920;-68
2023/11/04 06:22:27;;;;;;;;;;;9.30;81.20;;;;;;5092941;28;19916;-68
2023/11/04 06:24:52;;;;;;;;;;;9.40;81.40;;;;;;5093028;28;20509;-70
2023/11/04 06:27:19;;;;;;;;;;;9.40;81.30;;;;;;5092961;28;20011;-68
2023/11/04 06:29:45;;;;;;;;;;;9.40;81.10;;;;;;5094362;28;19916;-70
2023/11/04 06:32:12;;;;;;;;;;;9.50;80.80;;;;;;5093845;28;20005;-69
2023/11/04 06:34:39;;;;;;;;;;;9.50;81.40;;;;;;5093002;28;19926;-68
2023/11/04 06:37:06;;;;;;;;;;;9.60;81.40;;;;;;5091876;28;19947;-68
2023/11/04 06:39:32;;;;;;;;;;;9.60;81.20;;;;;;5092812;28;19912;-70
2023/11/04 06:41:58;;;;;;;;;;;9.60;80.80;;;;;;5075442;28;19926;-69
2023/11/04 06:44:24;;;;;;;;;;;9.60;81.40;;;;;;5093939;28;20424;-68
2023/11/04 06:46:50;;;;;;;;;;;9.60;81.30;;;;;;5094296;28;20197;-67
2023/11/04 06:49:16;;;;;;;;;;;9.60;81.40;;;;;;5092437;28;20006;-68
2023/11/04 06:51:42;;;;;;;;;;;9.60;81.20;;;;;;5092012;28;20371;-68
2023/11/04 06:54:08;;;;;;;;;;;9.70;80.90;;;;;;5092701;28;19963;-68
2023/11/04 06:56:34;;;;;;;;;;;9.70;81.30;;;;;;5092505;28;19920;-68
2023/11/04 06:59:00;;;;;;;;;;;9.70;81.40;;;;;;5092396;28;19912;-69
2023/11/04 07:01:26;;;;;;;;;;;9.70;80.90;;;;;;5093055;28;19919;-69
2023/11/04 07:03:53;;;;;;;;;;;9.70;81.70;;;;;;5075575;28;19912;-69
2023/11/04 07:06:19;;;;;;;;;;;9.80;81.30;;;;;;5092336;28;20343;-70
2023/11/04 07:08:46;;;;;;;;;;;9.80;80.90;;;;;;5092274;28;19912;-68
2023/11/04 07:11:32;;;;;;;;;;;9.80;81.30;;;;;;5091703;28;19983;-68
2023/11/04 07:13:58;;;;;;;;;;;9.90;81.30;;;;;;5092257;28;20250;-68
2023/11/04 07:16:24;;;;;;;;;;;9.90;81.40;;;;;;5093389;28;20364;-70
2023/11/04 07:18:50;;;;;;;;;;;10.00;81.10;;;;;;5075246;28;19912;-68
2023/11/04 07:21:18;;;;;;;;;;;10.00;81.30;;;;;;5093023;28;19926;-70
2023/11/04 07:23:43;;;;;;;;;;;10.10;81.10;;;;;;5093395;28;19919;-68
2023/11/04 07:26:09;;;;;;;;;;;10.20;80.80;;;;;;5093236;28;19959;-68
2023/11/04 07:28:35;;;;;;;;;;;10.20;80.80;;;;;;5075106;28;19912;-70
2023/11/04 07:31:20;;;;;;;;;;;10.30;80.90;;;;;;5092502;28;19924;-68
2023/11/04 07:33:47;;;;;;;;;;;10.30;80.60;;;;;;5093371;28;20365;-70
2023/11/04 07:36:12;;;;;;;;;;;10.40;80.60;;;;;;5091819;28;19969;-68
2023/11/04 07:38:39;;;;;;;;;;;10.40;80.50;;;;;;5099053;28;20306;-70
2023/11/04 07:41:05;;;;;;;;;;;10.40;80.60;;;;;;5092531;28;20102;-68
2023/11/04 07:43:32;;;;;;;;;;;10.30;80.70;;;;;;5095746;28;19919;-68
2023/11/04 07:45:58;;;;;;;;;;;10.40;80.80;;;;;;5092934;28;20732;-68
2023/11/04 07:48:24;;;;;;;;;;;10.30;80.90;;;;;;5092500;28;19966;-68
2023/11/04 07:50:50;;;;;;;;;;;10.40;80.60;;;;;;5091004;28;19924;-70
2023/11/04 07:53:16;;;;;;;;;;;10.50;80.70;;;;;;5074742;28;19923;-68
2023/11/04 07:55:42;;;;;;;;;;;10.70;80.50;;;;;;5091704;28;19920;-68
2023/11/04 07:58:09;;;;;;;;;;;11.10;79.40;;;;;;5099748;28;19919;-68
2023/11/04 08:00:35;;;;;;;;;;;11.40;78.20;;;;;;5112659;28;19968;-70
2023/11/04 08:03:01;;;;;;;;;;;11.60;77.20;;;;;;5093652;28;19916;-70
2023/11/04 08:05:27;;;;;;;;;;;11.70;77.00;;;;;;5092733;28;19972;-68
2023/11/04 08:07:53;;;;;;;;;;;11.80;76.60;;;;;;5092733;28;19994;-68
2023/11/04 08:10:19;;;;;;;;;;;11.90;75.70;;;;;;5092151;28;19919;-69
2023/11/04 08:12:45;;;;;;;;;;;12.00;75.40;;;;;;5074979;28;20006;-68
2023/11/04 08:15:12;;;;;;;;;;;12.30;75.00;;;;;;5092762;28;20438;-68
2023/11/04 08:17:39;;;;;;;;;;;12.40;74.40;;;;;;5091720;28;20474;-68
2023/11/04 08:20:08;;;;;;;;;;;12.80;73.70;;;;;;5090268;28;20334;-70
2023/11/04 08:22:38;;;;;;;;;;;13.10;72.60;;;;;;5092810;28;19966;-68
2023/11/04 08:25:06;;;;;;;;;;;13.30;72.50;;;;;;5091418;28;20437;-68
2023/11/04 08:27:32;;;;;;;;;;;13.50;72.60;;;;;;5093277;28;20319;-68
2023/11/04 08:29:58;;;;;;;;;;;13.80;70.40;;;;;;5091510;28;20357;-68
2023/11/04 08:32:24;;;;;;;;;;;13.90;70.60;;;;;;5092492;28;20002;-68
2023/11/04 08:34:50;;;;;;;;;;;13.90;70.80;;;;;;5091358;28;20010;-68
2023/11/04 08:37:16;;;;;;;;;;;13.90;71.20;;;;;;5092745;28;20008;-70
2023/11/04 08:39:42;;;;;;;;;;;13.80;71.40;;;;;;5091306;28;20445;-70
2023/11/04 08:42:08;;;;;;;;;;;13.80;70.70;;;;;;5090835;28;20012;-71
2023/11/04 08:44:34;;;;;;;;;;;13.90;69.80;;;;;;5092531;28;19912;-69
2023/11/04 08:47:00;;;;;;;;;;;14.00;69.90;;;;;;5101664;28;19972;-70
2023/11/04 08:49:26;;;;;;;;;;;14.00;69.60;;;;;;5101916;28;19922;-69
2023/11/04 08:51:52;;;;;;;;;;;14.10;70.10;;;;;;5103765;28;19947;-69
2023/11/04 08:54:20;;;;;;;;;;;14.10;68.00;;;;;;5108529;28;20243;-70
2023/11/04 08:56:48;;;;;;;;;;;14.10;68.50;;;;;;5092746;28;19920;-67
2023/11/04 08:59:14;;;;;;;;;;;14.20;68.40;;;;;;5091176;28;19912;-68
2023/11/04 09:01:42;;;;;;;;;;;14.70;66.30;;;;;;5095444;27;19967;-69
2023/11/04 09:04:08;;;;;;;;;;;15.10;63.80;;;;;;5101083;28;19920;-69
2023/11/04 09:06:34;;;;;;;;;;;15.30;64.70;;;;;;5080938;28;19926;-68
2023/11/04 09:09:00;;;;;;;;;;;15.30;64.80;;;;;;5112237;28;19916;-70
2023/11/04 09:11:26;;;;;;;;;;;15.00;65.20;;;;;;5108211;28;19927;-70
2023/11/04 09:13:52;;;;;;;;;;;14.80;64.10;;;;;;5116174;28;19912;-68
2023/11/04 09:16:18;;;;;;;;;;;14.70;65.10;;;;;;5114840;28;19969;-68
2023/11/04 09:18:44;;;;;;;;;;;14.60;63.30;;;;;;5116118;28;20363;-68
2023/11/04 09:21:10;;;;;;;;;;;14.50;64.10;;;;;;5097086;28;20414;-69
2023/11/04 09:23:35;;;;;;;;;;;14.50;63.30;;;;;;5095800;28;19951;-69
2023/11/04 09:26:01;;;;;;;;;;;14.70;63.50;;;;;;5096488;28;19919;-70
2023/11/04 09:28:27;;;;;;;;;;;14.80;63.10;;;;;;5116063;27;19922;-69
2023/11/04 09:30:54;;;;;;;;;;;14.70;61.70;;;;;;5097332;28;20357;-68
2023/11/04 09:33:21;;;;;;;;;;;14.80;62.30;;;;;;5095418;28;20322;-70
2023/11/04 09:35:47;;;;;;;;;;;15.10;61.70;;;;;;5106902;28;19923;-69
2023/11/04 09:38:13;;;;;;;;;;;15.40;60.50;;;;;;5097771;28;20349;-68
2023/11/04 09:40:39;;;;;;;;;;;15.60;58.70;;;;;;5107577;27;19915;-68
2023/11/04 09:43:05;;;;;;;;;;;15.70;58.80;;;;;;5115409;27;19915;-70
2023/11/04 09:45:31;;;;;;;;;;;15.90;58.70;;;;;;5114456;28;20338;-69
2023/11/04 09:47:57;;;;;;;;;;;16.10;58.80;;;;;;5115270;28;20018;-69
2023/11/04 09:50:23;;;;;;;;;;;16.10;58.20;;;;;;5102500;28;19927;-68
2023/11/04 09:52:54;;;;;;;;;;;16.00;56.90;;;;;;5111945;28;20425;-70
2023/11/04 09:55:23;;;;;;;;;;;15.90;56.40;;;;;;5114161;28;20486;-69
2023/11/04 09:57:49;;;;;;;;;;;15.90;57.70;;;;;;5114081;28;20369;-68
2023/11/04 10:00:19;;;;;;;;;;;15.80;57.20;;;;;;5113503;28;19951;-68
2023/11/04 10:02:45;;;;;;;;;;;15.80;58.50;;;;;;5115577;28;19969;-70
2023/11/04 10:05:11;;;;;;;;;;;15.80;59.30;;;;;;5114245;28;19995;-70
2023/11/04 10:07:38;;;;;;;;;;;15.70;58.70;;;;;;5115333;28;20355;-68
2023/11/04 10:10:05;;;;;;;;;;;15.60;57.80;;;;;;5105201;28;20405;-70
2023/11/04 10:12:31;;;;;;;;;;;15.50;57.90;;;;;;5093147;28;19923;-70
2023/11/04 10:14:57;;;;;;;;;;;15.30;58.10;;;;;;5094729;28;19915;-68
2023/11/04 10:17:23;;;;;;;;;;;15.30;58.00;;;;;;5093578;28;19916;-69
2023/11/04 10:19:49;;;;;;;;;;;15.40;58.50;;;;;;5093350;28;19920;-69
2023/11/04 10:22:16;;;;;;;;;;;15.90;57.60;;;;;;5092887;28;20007;-68
2023/11/04 10:24:42;;;;;;;;;;;16.30;56.70;;;;;;5094485;28;19938;-70
2023/11/04 10:27:08;;;;;;;;;;;16.90;55.60;;;;;;5092772;28;20278;-70
2023/11/04 10:29:34;;;;;;;;;;;17.40;54.90;;;;;;5093272;28;19918;-70
2023/11/04 10:32:03;;;;;;;;;;;17.40;55.30;;;;;;5094071;28;20094;-70
2023/11/04 10:34:32;;;;;;;;;;;17.60;52.30;;;;;;5094291;28;19912;-68
2023/11/04 10:36:59;;;;;;;;;;;17.60;53.40;;;;;;5092762;28;19938;-70
2023/11/04 10:39:26;;;;;;;;;;;17.40;52.10;;;;;;5092737;28;19934;-70
2023/11/04 10:41:59;;;;;;;;;;;17.40;52.50;;;;;;5093846;28;20393;-68
2023/11/04 10:44:46;;;;;;;;;;;17.20;52.40;;;;;;5092896;28;19991;-68
2023/11/04 10:47:50;;;;;;;;;;;17.30;53.40;;;;;;5094206;28;19959;-70
2023/11/04 10:50:23;;;;;;;;;;;18.10;51.60;;;;;;5093233;28;19912;-70
2023/11/04 10:53:26;;;;;;;;;;;18.20;50.70;;;;;;5092688;28;20019;-69
2023/11/04 10:56:15;;;;;;;;;;;18.40;51.00;;;;;;5093745;28;19920;-70
2023/11/04 10:58:48;;;;;;;;;;;18.50;51.90;;;;;;5093756;28;20325;-70
2023/11/04 11:01:16;;;;;;;;;;;19.40;51.10;;;;;;5093417;28;19920;-69
2023/11/04 11:03:42;;;;;;;;;;;19.40;48.20;;;;;;5092558;28;19912;-69
2023/11/04 11:06:10;;;;;;;;;;;18.70;48.80;;;;;;5092136;28;20295;-69
2023/11/04 11:08:38;;;;;;;;;;;18.10;50.50;;;;;;5092234;28;20372;-70
2023/11/04 11:11:32;;;;;;;;;;;17.70;51.00;;;;;;5091753;28;19998;-69
2023/11/04 11:13:58;;;;;;;;;;;17.40;51.50;;;;;;5092246;28;19920;-70
2023/11/04 11:16:25;;;;;;;;;;;17.20;51.20;;;;;;5093334;28;20282;-68
2023/11/04 11:18:52;;;;;;;;;;;17.00;51.80;;;;;;5092184;28;19939;-68
2023/11/04 11:21:20;;;;;;;;;;;16.90;52.20;;;;;;5091776;28;20346;-70
2023/11/04 11:23:47;;;;;;;;;;;16.90;51.80;;;;;;5091490;28;19916;-68
2023/11/04 11:26:14;;;;;;;;;;;16.90;52.70;;;;;;5093209;28;19931;-70
2023/11/04 11:28:41;;;;;;;;;;;17.00;53.20;;;;;;5093288;28;20011;-68
2023/11/04 11:33:53;;;;;;;;;;;17.00;53.30;;;;;;5093427;28;19922;-70
2023/11/04 11:36:20;;;;;;;;;;;16.70;50.30;;;;;;5091927;28;19955;-69
2023/11/04 11:38:46;;;;;;;;;;;16.50;52.20;;;;;;5091739;28;19916;-69
2023/11/04 11:41:14;;;;;;;;;;;16.50;51.90;;;;;;5092677;28;19916;-70
2023/11/04 11:43:40;;;;;;;;;;;16.20;52.90;;;;;;5091923;28;19915;-69
2023/11/04 11:46:06;;;;;;;;;;;16.40;53.40;;;;;;5091825;28;19916;-68
2023/11/04 11:48:37;;;;;;;;;;;16.60;53.00;;;;;;5074908;28;19916;-69
2023/11/04 11:51:22;;;;;;;;;;;16.90;53.00;;;;;;5097312;28;20024;-69
2023/11/04 11:53:48;;;;;;;;;;;17.40;52.30;;;;;;5111832;28;20364;-68
2023/11/04 11:56:14;;;;;;;;;;;17.50;50.80;;;;;;5113424;28;19927;-68
2023/11/04 11:58:40;;;;;;;;;;;17.50;51.00;;;;;;5113158;28;19915;-70
2023/11/04 12:01:08;;;;;;;;;;;17.40;51.20;;;;;;5111056;28;19951;-69
2023/11/04 12:03:35;;;;;;;;;;;17.30;51.30;;;;;;5112184;28;19947;-68
2023/11/04 12:06:01;;;;;;;;;;;17.20;51.90;;;;;;5113681;28;19919;-68
2023/11/04 12:08:27;;;;;;;;;;;17.30;51.90;;;;;;5111754;28;19915;-68
2023/11/04 12:10:54;;;;;;;;;;;17.30;52.20;;;;;;5111444;28;19938;-68
2023/11/04 12:13:20;;;;;;;;;;;17.20;53.10;;;;;;5111830;28;19915;-68
2023/11/04 12:15:46;;;;;;;;;;;17.10;52.90;;;;;;5111869;28;20299;-70
2023/11/04 12:35:02;;;;;;;;;;;16.20;54.30;;;;;;5115709;28;19923;-68
2023/11/04 12:37:30;;;;;;;;;;;16.30;54.60;;;;;;5115609;28;19931;-68
2023/11/04 12:39:56;;;;;;;;;;;16.20;54.70;;;;;;5117280;28;19912;-70
2023/11/04 12:42:22;;;;;;;;;;;16.30;53.70;;;;;;5114824;28;20318;-70
2023/11/04 12:45:08;;;;;;;;;;;16.30;54.50;;;;;;5108000;28;20292;-70
2023/11/04 12:47:36;;;;;;;;;;;17.50;53.60;;;;;;5097654;28;19920;-70
2023/11/04 12:50:02;;;;;;;;;;;20.80;45.00;;;;;;5108527;28;19919;-68
2023/11/04 12:52:29;;;;;;;;;;;21.00;42.00;;;;;;5097856;28;19924;-70
2023/11/04 12:54:55;;;;;;;;;;;20.80;41.40;;;;;;5097574;28;20192;-68
2023/11/04 12:57:21;;;;;;;;;;;20.10;45.00;;;;;;5105894;28;19986;-70
2023/11/04 12:59:47;;;;;;;;;;;19.20;45.50;;;;;;5107339;28;19947;-69
2023/11/04 13:02:13;;;;;;;;;;;18.60;47.10;;;;;;5108532;28;19933;-69
2023/11/04 13:04:39;;;;;;;;;;;18.40;48.50;;;;;;5115078;28;20353;-70
2023/11/04 13:07:05;;;;;;;;;;;19.10;46.60;;;;;;5115044;28;20373;-68
2023/11/04 13:09:31;;;;;;;;;;;21.30;42.50;;;;;;5097699;28;19941;-69
2023/11/04 13:11:57;;;;;;;;;;;23.30;38.00;;;;;;5114309;28;19919;-69
2023/11/04 13:14:25;;;;;;;;;;;22.20;37.80;;;;;;5097860;28;19912;-69
2023/11/04 13:16:51;;;;;;;;;;;21.80;39.00;;;;;;5097850;28;19920;-69
2023/11/04 13:19:17;;;;;;;;;;;21.10;40.20;;;;;;5114030;28;20382;-70
2023/11/04 13:21:43;;;;;;;;;;;20.40;42.30;;;;;;5114424;28;19919;-70
2023/11/04 13:24:11;;;;;;;;;;;19.90;43.70;;;;;;5114854;28;19922;-69
2023/11/04 13:26:38;;;;;;;;;;;19.20;44.10;;;;;;5114939;28;20373;-70
2023/11/04 13:29:04;;;;;;;;;;;18.60;45.60;;;;;;5114695;28;19912;-69
2023/11/04 13:31:30;;;;;;;;;;;18.40;47.40;;;;;;5115323;28;19926;-70
2023/11/04 13:33:57;;;;;;;;;;;18.50;46.30;;;;;;5114748;28;19956;-70
2023/11/04 13:36:23;;;;;;;;;;;18.40;46.30;;;;;;5111500;28;19919;-69
2023/11/04 13:38:49;;;;;;;;;;;18.40;46.30;;;;;;5099260;28;20006;-70
2023/11/04 13:41:15;;;;;;;;;;;18.30;46.10;;;;;;5099086;28;20280;-70
2023/11/04 13:43:41;;;;;;;;;;;18.30;46.20;;;;;;5114217;28;19912;-70
2023/11/04 13:46:07;;;;;;;;;;;20.40;41.90;;;;;;5113398;28;20341;-70
2023/11/04 13:48:32;;;;;;;;;;;20.90;39.20;;;;;;5115543;28;19911;-70
2023/11/04 13:50:59;;;;;;;;;;;20.20;39.70;;;;;;5107068;28;20330;-70
2023/11/04 13:53:26;;;;;;;;;;;19.10;41.90;;;;;;5109990;28;19915;-69
2023/11/04 13:55:53;;;;;;;;;;;18.20;45.00;;;;;;5115439;28;19926;-70
2023/11/04 13:58:19;;;;;;;;;;;17.70;47.10;;;;;;5096977;28;19915;-69
2023/11/04 14:00:45;;;;;;;;;;;17.40;47.80;;;;;;5113384;28;20353;-70
2023/11/04 14:03:15;;;;;;;;;;;17.50;49.00;;;;;;5114148;28;19934;-70
2023/11/04 14:05:41;;;;;;;;;;;17.40;49.20;;;;;;5114009;28;19955;-69
2023/11/04 14:08:07;;;;;;;;;;;17.20;49.40;;;;;;5114868;28;19915;-70
2023/11/04 14:10:34;;;;;;;;;;;16.80;50.00;;;;;;5098289;28;19923;-70
2023/11/04 14:12:59;;;;;;;;;;;16.70;50.80;;;;;;5094618;28;19944;-70
2023/11/04 14:15:25;;;;;;;;;;;16.50;51.20;;;;;;5093253;28;19912;-69
2023/11/04 14:17:51;;;;;;;;;;;16.50;51.60;;;;;;5093480;28;19924;-69
2023/11/04 14:20:17;;;;;;;;;;;16.30;52.10;;;;;;5093638;28;20014;-70
2023/11/04 14:22:44;;;;;;;;;;;16.20;52.40;;;;;;5093703;28;20018;-70
2023/11/04 14:25:10;;;;;;;;;;;16.10;52.90;;;;;;5094301;28;19916;-69
2023/11/04 14:27:36;;;;;;;;;;;15.90;53.50;;;;;;5111045;28;19919;-69
2023/11/04 14:30:06;;;;;;;;;;;15.90;53.30;;;;;;5113510;28;19916;-70
2023/11/04 14:32:32;;;;;;;;;;;15.80;53.70;;;;;;5114706;28;19927;-69
2023/11/04 14:35:17;;;;;;;;;;;15.60;53.70;;;;;;5113395;28;20002;-70
2023/11/04 14:37:43;;;;;;;;;;;15.50;54.90;;;;;;5114779;28;19959;-69
2023/11/04 14:40:18;;;;;;;;;;;15.30;55.40;;;;;;5113713;28;19916;-70
2023/11/04 14:42:45;;;;;;;;;;;15.10;55.70;;;;;;5112425;28;19934;-70